createdAt,value
2018-10-12T00:00:58.872Z,15.67
2018-10-12T00:05:01.187Z,16.63
2018-10-12T00:09:04.701Z,15.83
2018-10-12T00:13:07.046Z,17.23
2018-10-12T00:17:09.446Z,16.20
2018-10-12T00:21:11.929Z,17.97
2018-10-12T00:25:14.332Z,18.97
2018-10-12T00:29:16.646Z,21.03
2018-10-12T00:33:19.072Z,19.70
2018-10-12T00:37:21.551Z,18.47
2018-10-12T00:41:23.860Z,16.97
2018-10-12T00:45:26.205Z,17.30
2018-10-12T00:49:28.528Z,18.40
2018-10-12T00:53:30.851Z,17.10
2018-10-12T00:57:33.192Z,17.25
2018-10-12T01:01:35.526Z,20.77
2018-10-12T01:05:37.905Z,15.33
2018-10-12T01:09:40.380Z,15.70
2018-10-12T01:13:42.751Z,15.13
2018-10-12T01:17:45.149Z,16.23
2018-10-12T01:21:47.567Z,17.60
2018-10-12T01:25:49.936Z,17.83
2018-10-12T01:29:52.709Z,18.33
2018-10-12T01:33:55.091Z,17.50
2018-10-12T01:37:57.494Z,16.27
2018-10-12T01:41:59.807Z,18.77
2018-10-12T01:46:02.155Z,14.63
2018-10-12T01:50:04.514Z,16.33
2018-10-12T01:54:06.826Z,15.33
2018-10-12T01:58:09.215Z,15.20
2018-10-12T02:02:11.590Z,18.60
2018-10-12T02:06:13.971Z,22.10
2018-10-12T02:10:16.406Z,24.73
2018-10-12T02:14:18.756Z,28.10
2018-10-12T02:18:21.175Z,28.33
2018-10-12T02:22:23.594Z,30.93
2018-10-12T02:26:25.931Z,29.77
2018-10-12T02:30:28.308Z,29.27
2018-10-12T02:34:30.657Z,32.80
2018-10-12T02:38:33.084Z,37.27
2018-10-12T02:42:35.429Z,41.97
2018-10-12T02:46:37.780Z,41.30
2018-10-12T02:50:40.060Z,45.53
2018-10-12T02:54:42.339Z,42.47
2018-10-12T02:58:44.646Z,46.80
2018-10-12T03:02:47.019Z,44.27
2018-10-12T03:06:49.428Z,46.53
2018-10-12T03:10:51.724Z,44.40
2018-10-12T03:14:54.055Z,50.80
2018-10-12T03:18:56.420Z,44.67
2018-10-12T03:22:58.706Z,47.50
2018-10-12T03:27:01.210Z,49.17
2018-10-12T03:31:04.183Z,44.87
2018-10-12T03:35:06.579Z,44.50
2018-10-12T03:39:09.066Z,47.03
2018-10-12T03:43:11.536Z,54.43
2018-10-12T03:47:13.854Z,56.30
2018-10-12T03:51:16.545Z,51.50
2018-10-12T03:55:18.930Z,55.53
2018-10-12T03:59:21.245Z,58.67
2018-10-12T04:03:23.689Z,57.63
2018-10-12T04:07:26.099Z,56.37
2018-10-12T04:11:28.464Z,62.20
2018-10-12T04:15:30.839Z,52.97
2018-10-12T04:19:42.572Z,56.73
2018-10-12T04:23:44.870Z,55.50
2018-10-12T04:27:47.240Z,57.57
2018-10-12T04:31:49.559Z,51.37
2018-10-12T04:35:51.849Z,57.03
2018-10-12T04:39:57.687Z,61.35
2018-10-12T04:44:01.420Z,54.77
2018-10-12T04:48:03.784Z,59.13
2018-10-12T04:52:06.428Z,59.53
2018-10-12T04:56:10.577Z,60.63
2018-10-12T05:00:12.875Z,61.33
2018-10-12T05:04:15.318Z,59.57
2018-10-12T05:08:17.801Z,57.93
2018-10-12T05:12:20.145Z,58.70
2018-10-12T05:16:22.471Z,57.13
2018-10-12T05:20:24.892Z,57.43
2018-10-12T05:24:27.204Z,54.57
2018-10-12T05:28:31.475Z,53.60
2018-10-12T05:32:33.769Z,55.47
2018-10-12T05:36:36.123Z,52.40
2018-10-12T05:40:38.510Z,55.47
2018-10-12T05:44:40.919Z,52.53
2018-10-12T05:48:54.632Z,54.03
2018-10-12T05:52:56.916Z,50.23
2018-10-12T05:56:59.340Z,51.10
2018-10-12T06:01:01.707Z,47.90
2018-10-12T06:05:04.309Z,48.00
2018-10-12T06:09:07.408Z,49.03
2018-10-12T06:13:09.797Z,46.67
2018-10-12T06:17:12.252Z,45.23
2018-10-12T06:21:14.609Z,40.83
2018-10-12T06:25:17.064Z,37.83
2018-10-12T06:29:19.433Z,38.77
2018-10-12T06:33:21.865Z,34.47
2018-10-12T06:37:24.229Z,35.03
2018-10-12T06:41:26.623Z,35.00
2018-10-12T06:45:29.070Z,32.67
2018-10-12T06:49:31.408Z,37.90
2018-10-12T06:53:33.915Z,36.53
2018-10-12T06:57:36.213Z,42.87
2018-10-12T07:01:38.609Z,37.00
2018-10-12T07:05:41.133Z,34.97
2018-10-12T07:09:43.594Z,34.43
2018-10-12T07:13:46.478Z,34.03
2018-10-12T07:17:48.783Z,32.33
2018-10-12T07:21:51.148Z,33.90
2018-10-12T07:25:53.508Z,28.70
2018-10-12T07:29:55.828Z,26.70
2018-10-12T07:33:58.241Z,24.70
2018-10-12T07:38:00.600Z,26.07
2018-10-12T07:42:03.062Z,25.47
2018-10-12T07:46:05.857Z,23.50
2018-10-12T07:50:08.273Z,24.40
2018-10-12T07:54:10.652Z,24.20
2018-10-12T07:58:13.057Z,19.83
2018-10-12T08:02:15.463Z,19.87
2018-10-12T08:06:27.294Z,19.47
2018-10-12T08:10:30.349Z,18.23
2018-10-12T08:14:32.698Z,20.17
2018-10-12T08:18:35.246Z,18.93
2018-10-12T08:22:37.659Z,19.70
2018-10-12T08:26:39.961Z,18.83
2018-10-12T08:30:42.441Z,20.30
2018-10-12T08:34:44.764Z,19.63
2018-10-12T08:38:47.246Z,17.70
2018-10-12T08:42:49.607Z,18.03
2018-10-12T08:46:51.982Z,18.97
2018-10-12T08:50:54.357Z,17.57
2018-10-12T08:54:56.826Z,19.40
2018-10-12T08:58:59.578Z,20.37
2018-10-12T09:03:02.050Z,19.57
2018-10-12T09:07:04.426Z,19.63
2018-10-12T09:11:06.890Z,19.73
2018-10-12T09:15:09.248Z,20.47
2018-10-12T09:19:11.636Z,21.83
2018-10-12T09:23:14.028Z,21.27
2018-10-12T09:27:16.486Z,20.13
2018-10-12T09:31:19.025Z,20.33
2018-10-12T09:35:21.398Z,18.10
2018-10-12T09:39:23.758Z,19.33
2018-10-12T09:43:26.115Z,18.27
2018-10-12T09:47:28.512Z,21.60
2018-10-12T09:51:30.887Z,21.30
2018-10-12T09:55:33.207Z,20.20
2018-10-12T09:59:35.558Z,19.57
2018-10-12T10:03:43.493Z,22.57
2018-10-12T10:07:46.553Z,21.53
2018-10-12T10:11:49.248Z,21.67
2018-10-12T10:15:51.136Z,23.07
2018-10-12T10:19:53.806Z,20.20
2018-10-12T10:23:56.273Z,21.87
2018-10-12T10:27:58.578Z,24.13
2018-10-12T10:32:00.926Z,19.93
2018-10-12T10:36:03.265Z,19.63
2018-10-12T10:40:05.692Z,20.17
2018-10-12T10:44:08.027Z,17.77
2018-10-12T10:48:10.342Z,20.30
2018-10-12T10:52:12.661Z,18.27
2018-10-12T10:56:15.927Z,15.63
2018-10-12T11:00:18.247Z,15.50
2018-10-12T11:04:20.566Z,15.47
2018-10-12T11:08:22.868Z,13.90
2018-10-12T11:12:25.450Z,14.97
2018-10-12T11:16:27.696Z,15.37
2018-10-12T11:20:30.126Z,17.27
2018-10-12T11:24:32.608Z,12.80
2018-10-12T11:28:35.162Z,15.23
2018-10-12T11:32:37.628Z,12.90
2018-10-12T11:36:39.978Z,14.13
2018-10-12T11:40:42.378Z,14.73
2018-10-12T11:44:44.808Z,11.00
2018-10-12T11:48:47.238Z,9.90
2018-10-12T11:52:49.603Z,12.13
2018-10-12T11:56:53.109Z,11.80
2018-10-12T12:00:55.597Z,10.40
2018-10-12T12:04:58.116Z,10.17
2018-10-12T12:09:00.597Z,11.43
2018-10-12T12:13:03.032Z,7.47
2018-10-12T12:17:05.431Z,8.37
2018-10-12T12:21:07.825Z,10.83
2018-10-12T12:25:10.293Z,5.70
2018-10-12T12:29:12.656Z,10.83
2018-10-12T12:33:15.016Z,9.33
2018-10-12T12:37:17.459Z,8.53
2018-10-12T12:41:19.850Z,5.33
2018-10-12T12:45:22.145Z,6.57
2018-10-12T12:49:24.791Z,6.33
2018-10-12T12:53:26.886Z,8.17
2018-10-12T12:57:29.437Z,7.97
2018-10-12T13:01:31.790Z,8.70
2018-10-12T13:05:34.149Z,9.87
2018-10-12T13:09:36.529Z,6.23
2018-10-12T13:13:38.894Z,8.90
2018-10-12T13:17:41.217Z,11.57
2018-10-12T13:21:43.625Z,5.47
2018-10-12T13:25:46.078Z,8.30
2018-10-12T13:29:48.357Z,4.93
2018-10-12T13:33:50.687Z,5.57
2018-10-12T13:37:53.071Z,10.73
2018-10-12T13:41:55.470Z,6.03
2018-10-12T13:45:57.850Z,6.23
2018-10-12T13:50:00.545Z,4.60
2018-10-12T13:54:03.014Z,5.07
2018-10-12T13:58:05.410Z,6.73
2018-10-12T14:02:07.796Z,9.07
2018-10-12T14:06:10.768Z,5.53
2018-10-12T14:10:13.173Z,7.23
2018-10-12T14:14:15.609Z,7.07
2018-10-12T14:18:18.392Z,5.63
2018-10-12T14:22:20.876Z,5.63
2018-10-12T14:26:23.199Z,6.37
2018-10-12T14:30:25.821Z,6.80
2018-10-12T14:34:28.203Z,4.70
2018-10-12T14:38:31.370Z,10.67
2018-10-12T14:42:34.895Z,5.30
2018-10-12T14:46:37.875Z,6.20
2018-10-12T14:50:40.831Z,5.57
2018-10-12T14:54:43.435Z,5.67
2018-10-12T14:58:45.769Z,15.67
2018-10-12T15:02:48.215Z,5.30
2018-10-12T15:06:50.626Z,7.63
2018-10-12T15:10:52.931Z,9.10
2018-10-12T15:15:19.430Z,7.60
2018-10-12T15:19:21.794Z,6.33
2018-10-12T15:23:24.200Z,9.97
2018-10-12T15:27:26.570Z,8.10
2018-10-12T15:31:29.169Z,5.27
2018-10-12T15:35:31.570Z,5.70
2018-10-12T15:39:34.029Z,4.43
2018-10-12T15:43:36.555Z,6.40
2018-10-12T15:47:38.945Z,5.80
2018-10-12T15:51:41.340Z,5.33
2018-10-12T15:55:43.689Z,4.73
2018-10-12T15:59:47.105Z,4.40
2018-10-12T16:03:49.553Z,8.13
2018-10-12T16:07:51.929Z,7.40
2018-10-12T16:11:54.420Z,9.87
2018-10-12T16:15:56.926Z,11.27
2018-10-12T16:19:59.272Z,7.23
2018-10-12T16:24:07.784Z,9.43
2018-10-12T16:28:10.274Z,9.47
2018-10-12T16:32:12.657Z,4.37
2018-10-12T16:36:15.143Z,5.80
2018-10-12T16:40:17.383Z,7.90
2018-10-12T16:44:19.739Z,10.00
2018-10-12T16:48:22.157Z,6.90
2018-10-12T16:52:24.533Z,6.63
2018-10-12T16:56:27.318Z,6.53
2018-10-12T17:00:29.929Z,10.25
2018-10-12T17:04:32.413Z,7.22
2018-10-12T17:08:34.897Z,6.17
2018-10-12T17:12:37.400Z,7.93
2018-10-12T17:16:39.979Z,7.37
2018-10-12T17:20:42.608Z,9.50
2018-10-12T17:24:45.094Z,5.33
2018-10-12T17:28:47.443Z,5.70
2018-10-12T17:32:49.904Z,7.43
2018-10-12T17:36:52.317Z,11.78
2018-10-12T17:40:54.833Z,4.00
2018-10-12T17:44:57.310Z,4.47
2018-10-12T17:48:59.687Z,5.90
2018-10-12T17:53:02.207Z,9.33
2018-10-12T17:57:06.237Z,8.93
2018-10-12T18:01:08.699Z,10.17
2018-10-12T18:05:11.566Z,9.20
2018-10-12T18:09:14.045Z,11.00
2018-10-12T18:13:16.534Z,11.50
2018-10-12T18:17:18.938Z,9.37
2018-10-12T18:21:21.479Z,8.40
2018-10-12T18:25:23.832Z,8.33
2018-10-12T18:29:26.461Z,8.83
2018-10-12T18:33:28.889Z,9.67
2018-10-12T18:37:31.419Z,9.30
2018-10-12T18:41:33.910Z,8.97
2018-10-12T18:45:36.461Z,12.97
2018-10-12T18:49:39.356Z,11.50
2018-10-12T18:53:41.790Z,8.73
2018-10-12T18:57:44.239Z,6.70
2018-10-12T19:01:46.883Z,8.07
2018-10-12T19:05:49.374Z,5.73
2018-10-12T19:09:51.872Z,9.20
2018-10-12T19:13:54.461Z,6.00
2018-10-12T19:17:56.858Z,16.63
2018-10-12T19:21:59.474Z,6.07
2018-10-12T19:26:02.602Z,5.90
2018-10-12T19:30:05.163Z,6.87
2018-10-12T19:34:07.702Z,4.60
2018-10-12T19:38:10.175Z,9.00
2018-10-12T19:42:13.273Z,7.37
2018-10-12T19:46:16.091Z,5.87
2018-10-12T19:50:18.501Z,6.97
2018-10-12T19:54:21.154Z,5.90
2018-10-12T19:58:23.649Z,5.67
2018-10-12T20:02:26.041Z,8.60
2018-10-12T20:06:28.798Z,6.70
2018-10-12T20:10:31.273Z,7.80
2018-10-12T20:14:34.957Z,7.27
2018-10-12T20:18:37.917Z,6.37
2018-10-12T20:22:41.728Z,5.63
2018-10-12T20:26:45.617Z,6.17
2018-10-12T20:30:48.051Z,6.50
2018-10-12T20:34:50.518Z,4.90
2018-10-12T20:38:53.239Z,6.90
2018-10-12T20:42:55.663Z,7.27
2018-10-12T20:46:58.487Z,13.60
2018-10-12T20:51:00.888Z,5.97
2018-10-12T20:55:03.369Z,10.10
2018-10-12T20:59:06.432Z,11.57
2018-10-12T21:03:09.036Z,5.63
2018-10-12T21:07:11.453Z,10.07
2018-10-12T21:11:13.841Z,4.97
2018-10-12T21:15:16.226Z,8.53
2018-10-12T21:19:18.631Z,7.80
2018-10-12T21:23:20.986Z,7.00
2018-10-12T21:27:23.374Z,5.60
2018-10-12T21:31:25.787Z,9.27
2018-10-12T21:35:28.172Z,7.60
2018-10-12T21:39:30.506Z,5.93
2018-10-12T21:43:32.908Z,6.30
2018-10-12T21:47:35.232Z,7.60
2018-10-12T21:51:37.575Z,6.53
2018-10-12T21:55:39.957Z,5.63
2018-10-12T21:59:42.329Z,10.37
2018-10-12T22:03:44.644Z,13.20
2018-10-12T22:07:47.172Z,6.07
2018-10-12T22:11:49.615Z,5.53
2018-10-12T22:15:51.992Z,5.10
2018-10-12T22:19:54.411Z,5.47
2018-10-12T22:23:57.137Z,6.93
2018-10-12T22:27:59.620Z,7.30
2018-10-12T22:32:02.045Z,8.30
2018-10-12T22:36:04.526Z,8.60
2018-10-12T22:40:07.035Z,9.83
2018-10-12T22:44:09.745Z,9.23
2018-10-12T22:48:12.184Z,11.33
2018-10-12T22:52:14.531Z,8.33
2018-10-12T22:56:16.972Z,8.07
2018-10-12T23:00:19.437Z,10.03
2018-10-12T23:04:21.791Z,9.47
2018-10-12T23:08:24.413Z,7.83
2018-10-12T23:12:26.942Z,8.63
2018-10-12T23:16:29.289Z,6.57
2018-10-12T23:20:31.671Z,6.37
2018-10-12T23:24:34.044Z,5.87
2018-10-12T23:28:36.425Z,8.83
2018-10-12T23:32:40.441Z,7.00
2018-10-12T23:36:43.710Z,6.00
2018-10-12T23:40:46.217Z,4.37
2018-10-12T23:44:48.565Z,7.80
2018-10-12T23:48:50.925Z,6.30
2018-10-12T23:52:53.244Z,7.37
2018-10-12T23:56:55.610Z,18.17
